createdAt,value
2018-05-29T00:01:03.797Z,74.03
2018-05-29T00:03:31.607Z,74.54
2018-05-29T00:05:59.801Z,75.01
2018-05-29T00:08:27.378Z,75.36
2018-05-29T00:10:54.988Z,75.74
2018-05-29T00:13:22.659Z,76.10
2018-05-29T00:15:50.227Z,76.42
2018-05-29T00:18:17.917Z,76.37
2018-05-29T00:20:45.492Z,76.43
2018-05-29T00:23:13.070Z,76.47
2018-05-29T00:25:40.740Z,76.68
2018-05-29T00:28:08.581Z,76.69
2018-05-29T00:30:36.241Z,77.14
2018-05-29T00:33:03.816Z,77.66
2018-05-29T00:35:31.531Z,77.70
2018-05-29T00:37:59.107Z,78.23
2018-05-29T00:40:26.682Z,78.92
2018-05-29T00:42:54.290Z,79.11
2018-05-29T00:45:21.861Z,79.40
2018-05-29T00:47:49.771Z,79.38
2018-05-29T00:50:17.355Z,79.93
2018-05-29T00:52:57.839Z,79.94
2018-05-29T00:55:37.079Z,80.17
2018-05-29T00:58:04.696Z,81.21
2018-05-29T01:00:32.659Z,81.12
2018-05-29T01:03:00.230Z,81.08
2018-05-29T01:05:27.800Z,81.29
2018-05-29T01:07:55.413Z,81.20
2018-05-29T01:10:22.996Z,81.60
2018-05-29T01:15:43.459Z,81.54
2018-05-29T01:18:11.442Z,81.68
2018-05-29T01:20:39.030Z,81.83
2018-05-29T01:23:06.594Z,82.15
2018-05-29T01:25:34.248Z,82.21
2018-05-29T01:28:01.848Z,82.30
2018-05-29T01:30:29.474Z,82.65
2018-05-29T01:33:05.061Z,82.74
2018-05-29T01:35:32.660Z,82.99
2018-05-29T01:38:00.536Z,82.96
2018-05-29T01:40:28.134Z,83.03
2018-05-29T01:42:55.767Z,82.91
2018-05-29T01:45:23.712Z,82.84
2018-05-29T01:47:51.305Z,82.79
2018-05-29T01:50:18.886Z,82.93
2018-05-29T01:52:46.733Z,82.88
2018-05-29T01:55:14.338Z,82.67
2018-05-29T01:57:42.084Z,82.73
2018-05-29T02:00:10.072Z,83.05
2018-05-29T02:02:37.742Z,83.24
2018-05-29T02:05:05.313Z,83.18
2018-05-29T02:07:33.449Z,83.25
2018-05-29T02:10:01.030Z,83.24
2018-05-29T02:12:28.601Z,83.05
2018-05-29T02:14:56.462Z,83.09
2018-05-29T02:17:24.052Z,83.17
2018-05-29T02:19:51.778Z,83.19
2018-05-29T02:22:19.409Z,83.19
2018-05-29T02:24:46.997Z,83.14
2018-05-29T02:27:14.584Z,83.09
2018-05-29T02:29:42.258Z,83.03
2018-05-29T02:32:10.088Z,82.90
2018-05-29T02:34:37.670Z,82.84
2018-05-29T02:37:05.320Z,82.71
2018-05-29T02:39:32.915Z,82.83
2018-05-29T02:42:00.556Z,82.90
2018-05-29T02:44:28.550Z,82.90
2018-05-29T02:46:56.124Z,82.93
2018-05-29T02:49:23.995Z,82.85
2018-05-29T02:51:51.649Z,82.87
2018-05-29T02:54:19.520Z,82.90
2018-05-29T02:56:47.220Z,83.09
2018-05-29T02:59:14.804Z,83.17
2018-05-29T03:01:42.784Z,83.25
2018-05-29T03:04:10.426Z,83.40
2018-05-29T03:06:38.342Z,83.42
2018-05-29T03:09:06.823Z,83.62
2018-05-29T03:11:34.491Z,83.71
2018-05-29T03:14:02.597Z,83.70
2018-05-29T03:16:30.287Z,83.77
2018-05-29T03:18:57.864Z,83.92
2018-05-29T03:21:25.516Z,84.05
2018-05-29T03:23:53.093Z,84.06
2018-05-29T03:26:20.920Z,84.09
2018-05-29T03:28:48.570Z,84.19
2018-05-29T03:31:16.265Z,84.16
2018-05-29T03:33:43.919Z,84.32
2018-05-29T03:36:11.864Z,84.62
2018-05-29T03:38:39.427Z,84.63
2018-05-29T03:41:07.008Z,84.73
2018-05-29T03:43:35.117Z,84.99
2018-05-29T03:46:02.693Z,85.22
2018-05-29T03:48:30.267Z,85.31
2018-05-29T03:50:58.012Z,85.68
2018-05-29T03:53:25.584Z,85.77
2018-05-29T03:55:53.431Z,86.05
2018-05-29T03:58:21.031Z,86.13
2018-05-29T04:00:48.623Z,85.99
2018-05-29T04:03:16.557Z,85.82
2018-05-29T04:05:44.131Z,85.80
2018-05-29T04:08:11.757Z,85.66
2018-05-29T04:10:39.602Z,85.78
2018-05-29T04:13:07.174Z,86.03
2018-05-29T04:15:34.771Z,85.94
2018-05-29T04:18:02.408Z,85.95
2018-05-29T04:20:30.331Z,85.98
2018-05-29T04:22:57.911Z,86.04
2018-05-29T04:25:25.525Z,85.89
2018-05-29T04:27:53.604Z,85.70
2018-05-29T04:30:21.180Z,85.61
2018-05-29T04:32:49.044Z,85.71
2018-05-29T04:35:16.641Z,85.82
2018-05-29T04:37:44.604Z,85.77
2018-05-29T04:40:12.265Z,85.81
2018-05-29T04:42:39.830Z,85.68
2018-05-29T04:45:08.081Z,85.64
2018-05-29T04:47:35.719Z,85.72
2018-05-29T04:50:03.287Z,85.75
2018-05-29T04:52:31.277Z,85.85
2018-05-29T04:54:58.923Z,85.92
2018-05-29T04:57:26.502Z,86.10
2018-05-29T04:59:54.106Z,86.12
2018-05-29T05:02:21.940Z,86.08
2018-05-29T05:04:50.220Z,86.25
2018-05-29T05:07:18.040Z,86.23
2018-05-29T05:09:45.851Z,86.20
2018-05-29T05:12:13.446Z,86.47
2018-05-29T05:14:41.046Z,86.28
2018-05-29T05:17:08.679Z,86.06
2018-05-29T05:19:36.555Z,86.11
2018-05-29T05:22:04.206Z,86.22
2018-05-29T05:24:31.788Z,85.96
2018-05-29T05:26:59.688Z,86.09
2018-05-29T05:29:27.342Z,85.82
2018-05-29T05:31:54.990Z,85.67
2018-05-29T05:34:22.559Z,85.21
2018-05-29T05:36:50.181Z,84.49
2018-05-29T05:39:17.794Z,84.39
2018-05-29T05:41:45.934Z,83.96
2018-05-29T05:44:13.651Z,83.56
2018-05-29T05:46:41.226Z,84.08
2018-05-29T05:49:08.819Z,84.13
2018-05-29T05:51:36.846Z,83.95
2018-05-29T05:54:04.429Z,83.35
2018-05-29T05:56:32.099Z,82.99
2018-05-29T05:58:59.714Z,82.69
2018-05-29T06:01:27.301Z,82.44
2018-05-29T06:03:55.257Z,81.87
2018-05-29T06:06:22.846Z,81.63
2018-05-29T06:08:50.427Z,81.12
2018-05-29T06:11:18.578Z,80.49
2018-05-29T06:13:46.216Z,80.42
2018-05-29T06:16:13.813Z,80.41
2018-05-29T06:18:41.573Z,80.37
2018-05-29T06:21:09.720Z,79.65
2018-05-29T06:23:37.285Z,79.71
2018-05-29T06:26:04.946Z,79.11
2018-05-29T06:28:32.931Z,78.07
2018-05-29T06:31:00.581Z,77.43
2018-05-29T06:33:28.171Z,77.83
2018-05-29T06:35:55.850Z,77.25
2018-05-29T06:38:23.817Z,77.22
2018-05-29T06:40:51.417Z,76.17
2018-05-29T06:43:18.999Z,75.79
2018-05-29T06:45:46.740Z,75.38
2018-05-29T06:48:14.341Z,75.35
2018-05-29T06:50:41.971Z,74.68
2018-05-29T06:53:09.657Z,73.76
2018-05-29T06:55:37.307Z,74.07
2018-05-29T06:58:04.901Z,73.12
2018-05-29T07:00:32.508Z,72.99
2018-05-29T07:03:00.127Z,72.65
2018-05-29T07:05:28.296Z,72.64
2018-05-29T07:07:56.187Z,70.19
2018-05-29T07:10:24.055Z,70.60
2018-05-29T07:12:51.669Z,70.52
2018-05-29T07:15:19.557Z,69.88
2018-05-29T07:17:47.138Z,69.89
2018-05-29T07:20:14.746Z,69.19
2018-05-29T07:22:42.785Z,68.44
2018-05-29T07:25:10.433Z,68.30
2018-05-29T07:27:38.320Z,68.25
2018-05-29T07:30:05.957Z,67.87
2018-05-29T07:32:34.012Z,67.63
2018-05-29T07:35:01.601Z,67.06
2018-05-29T07:37:29.191Z,66.78
2018-05-29T07:39:57.188Z,66.13
2018-05-29T07:42:24.771Z,66.09
2018-05-29T07:44:52.372Z,65.88
2018-05-29T07:47:20.389Z,64.72
2018-05-29T07:49:48.048Z,64.54
2018-05-29T07:52:15.843Z,63.33
2018-05-29T07:54:43.512Z,63.92
2018-05-29T07:57:11.771Z,62.97
2018-05-29T07:59:40.241Z,62.92
2018-05-29T08:02:07.821Z,63.65
2018-05-29T08:04:35.756Z,63.63
2018-05-29T08:07:03.350Z,62.49
2018-05-29T08:09:30.927Z,63.19
2018-05-29T08:11:58.684Z,62.21
2018-05-29T08:14:26.309Z,62.38
2018-05-29T08:16:54.248Z,62.04
2018-05-29T08:19:22.188Z,61.15
2018-05-29T08:21:49.900Z,60.74
2018-05-29T08:24:17.617Z,59.99
2018-05-29T08:26:45.277Z,58.93
2018-05-29T08:29:13.039Z,58.62
2018-05-29T08:31:41.527Z,59.78
2018-05-29T08:34:09.125Z,59.37
2018-05-29T08:36:36.722Z,57.55
2018-05-29T08:39:04.418Z,57.40
2018-05-29T08:41:32.033Z,56.91
2018-05-29T08:43:59.945Z,58.24
2018-05-29T08:46:28.020Z,56.94
2018-05-29T08:48:55.773Z,57.23
2018-05-29T08:51:23.394Z,56.21
2018-05-29T08:53:51.012Z,55.46
2018-05-29T08:56:18.752Z,54.82
2018-05-29T08:58:46.781Z,53.70
2018-05-29T09:01:14.436Z,55.17
2018-05-29T09:03:42.026Z,53.58
2018-05-29T09:06:09.774Z,52.78
2018-05-29T09:08:37.381Z,53.66
2018-05-29T09:11:05.210Z,53.96
2018-05-29T09:13:32.829Z,53.12
2018-05-29T09:16:00.449Z,53.15
2018-05-29T09:18:28.545Z,52.86
2018-05-29T09:20:56.200Z,52.08
2018-05-29T09:23:23.805Z,51.02
2018-05-29T09:25:51.645Z,51.64
2018-05-29T09:28:19.533Z,51.47
2018-05-29T09:30:47.182Z,49.51
2018-05-29T09:33:14.830Z,50.24
2018-05-29T09:35:42.454Z,49.63
2018-05-29T09:38:10.043Z,49.00
2018-05-29T09:40:37.718Z,49.61
2018-05-29T09:43:05.603Z,49.19
2018-05-29T09:45:33.233Z,48.68
2018-05-29T09:48:00.829Z,47.98
2018-05-29T09:50:28.499Z,47.92
2018-05-29T09:52:56.235Z,47.34
2018-05-29T09:55:23.877Z,44.87
2018-05-29T09:57:51.466Z,45.30
2018-05-29T10:00:24.622Z,47.31
2018-05-29T10:02:52.511Z,46.29
2018-05-29T10:05:20.347Z,46.59
2018-05-29T10:07:47.958Z,46.29
2018-05-29T10:10:15.600Z,45.16
2018-05-29T10:12:43.234Z,45.23
2018-05-29T10:15:10.939Z,46.27
2018-05-29T10:17:38.538Z,44.63
2018-05-29T10:20:06.601Z,45.49
2018-05-29T10:22:34.245Z,46.10
2018-05-29T10:25:01.817Z,42.44
2018-05-29T10:27:29.786Z,42.97
2018-05-29T10:29:57.374Z,42.11
2018-05-29T10:32:25.010Z,42.71
2018-05-29T10:34:52.675Z,42.76
2018-05-29T10:37:20.323Z,40.86
2018-05-29T10:39:47.937Z,42.48
2018-05-29T10:42:15.844Z,42.50
2018-05-29T10:44:43.445Z,41.76
2018-05-29T10:47:11.127Z,42.25
2018-05-29T10:49:38.841Z,40.85
2018-05-29T10:52:06.923Z,40.44
2018-05-29T10:54:34.503Z,40.80
2018-05-29T10:57:02.122Z,39.05
2018-05-29T10:59:29.708Z,38.71
2018-05-29T11:01:57.324Z,39.87
2018-05-29T11:04:24.918Z,39.47
2018-05-29T11:06:52.538Z,37.37
2018-05-29T11:09:20.213Z,37.27
2018-05-29T11:11:47.927Z,36.59
2018-05-29T11:14:15.595Z,35.73
2018-05-29T11:16:43.213Z,35.55
2018-05-29T11:19:11.216Z,35.13
2018-05-29T11:24:31.290Z,35.36
2018-05-29T11:26:58.937Z,35.36
2018-05-29T11:29:26.538Z,35.60
2018-05-29T11:31:54.262Z,36.84
2018-05-29T11:34:22.109Z,34.95
2018-05-29T11:36:49.704Z,34.26
2018-05-29T11:39:17.413Z,32.08
2018-05-29T11:41:45.257Z,32.04
2018-05-29T11:44:13.093Z,32.08
2018-05-29T11:46:40.779Z,32.36
2018-05-29T11:49:08.488Z,31.54
2018-05-29T11:51:36.120Z,32.12
2018-05-29T11:54:03.979Z,30.86
2018-05-29T11:56:31.573Z,30.34
2018-05-29T11:58:59.597Z,30.46
2018-05-29T12:01:27.170Z,29.90
2018-05-29T12:03:54.740Z,30.86
2018-05-29T12:06:22.376Z,31.63
2018-05-29T12:08:49.978Z,32.07
2018-05-29T12:11:18.037Z,31.35
2018-05-29T12:13:45.656Z,30.46
2018-05-29T12:16:13.498Z,30.56
2018-05-29T12:18:41.600Z,30.72
2018-05-29T12:21:09.184Z,30.51
2018-05-29T12:23:37.050Z,30.18
2018-05-29T12:26:04.970Z,31.50
2018-05-29T12:28:32.596Z,31.68
2018-05-29T12:31:00.217Z,30.20
2018-05-29T12:33:27.875Z,30.99
2018-05-29T12:35:55.873Z,31.01
2018-05-29T12:38:23.655Z,31.97
2018-05-29T12:40:51.247Z,30.90
2018-05-29T12:43:19.260Z,31.75
2018-05-29T12:45:46.892Z,30.91
2018-05-29T12:48:14.539Z,31.50
2018-05-29T12:50:42.843Z,30.87
2018-05-29T12:53:10.433Z,32.15
2018-05-29T12:55:38.034Z,29.96
2018-05-29T12:58:05.677Z,30.23
2018-05-29T13:00:33.318Z,29.60
2018-05-29T13:03:00.949Z,30.33
2018-05-29T13:05:29.410Z,30.38
2018-05-29T13:07:57.359Z,30.89
2018-05-29T13:10:24.952Z,28.81
2018-05-29T13:12:52.596Z,29.33
2018-05-29T13:15:20.225Z,27.04
2018-05-29T13:17:47.890Z,27.75
2018-05-29T13:20:15.504Z,27.63
2018-05-29T13:22:43.141Z,26.50
2018-05-29T13:25:10.765Z,28.14
2018-05-29T13:27:38.789Z,28.12
2018-05-29T13:30:06.450Z,27.59
2018-05-29T13:32:34.063Z,29.66
2018-05-29T13:35:02.035Z,29.40
2018-05-29T13:37:29.963Z,29.22
2018-05-29T13:39:58.011Z,29.10
2018-05-29T13:42:25.972Z,29.89
2018-05-29T13:44:53.803Z,29.61
2018-05-29T13:47:21.443Z,30.31
2018-05-29T13:49:49.289Z,31.11
2018-05-29T13:52:16.927Z,29.67
2018-05-29T13:54:44.581Z,30.78
2018-05-29T13:57:12.437Z,30.31
2018-05-29T13:59:40.075Z,30.61
2018-05-29T14:02:08.560Z,30.15
2018-05-29T14:04:36.175Z,29.86
2018-05-29T14:07:03.771Z,28.88
2018-05-29T14:09:32.061Z,28.44
2018-05-29T14:11:59.775Z,29.76
2018-05-29T14:14:27.371Z,30.27
2018-05-29T14:16:54.991Z,30.06
2018-05-29T14:19:22.649Z,30.13
2018-05-29T14:21:50.487Z,28.60
2018-05-29T14:24:18.107Z,30.16
2018-05-29T14:26:45.701Z,30.17
2018-05-29T14:29:13.639Z,28.77
2018-05-29T14:31:41.221Z,28.33
2018-05-29T14:34:08.834Z,28.77
2018-05-29T14:36:37.022Z,29.17
2018-05-29T14:39:07.433Z,30.15
2018-05-29T14:41:35.025Z,28.63
2018-05-29T14:44:03.195Z,28.04
2018-05-29T14:46:31.016Z,26.40
2018-05-29T14:48:58.925Z,27.05
2018-05-29T14:51:27.153Z,26.63
2018-05-29T14:53:54.756Z,26.29
2018-05-29T14:56:22.661Z,26.42
2018-05-29T14:58:50.737Z,27.36
2018-05-29T15:01:18.339Z,27.78
2018-05-29T15:03:45.940Z,27.57
2018-05-29T15:06:14.013Z,28.36
2018-05-29T15:08:41.684Z,27.73
2018-05-29T15:11:09.313Z,27.80
2018-05-29T15:13:37.284Z,27.10
2018-05-29T15:16:04.879Z,27.48
2018-05-29T15:18:32.566Z,27.80
2018-05-29T15:21:00.203Z,27.60
2018-05-29T15:23:27.811Z,27.31
2018-05-29T15:25:55.433Z,27.92
2018-05-29T15:28:23.316Z,28.22
2018-05-29T15:30:50.952Z,27.92
2018-05-29T15:33:18.547Z,28.80
2018-05-29T15:35:46.379Z,28.45
2018-05-29T15:38:13.992Z,27.90
2018-05-29T15:40:41.940Z,28.48
2018-05-29T15:43:09.531Z,27.21
2018-05-29T15:45:37.148Z,27.53
2018-05-29T15:48:05.080Z,27.73
2018-05-29T15:50:33.907Z,27.81
2018-05-29T15:53:02.016Z,27.42
2018-05-29T15:55:29.734Z,27.92
2018-05-29T15:57:57.427Z,27.67
2018-05-29T16:00:25.017Z,26.43
2018-05-29T16:02:53.044Z,26.53
2018-05-29T16:05:20.643Z,27.20
2018-05-29T16:07:48.341Z,27.41
2018-05-29T16:10:15.999Z,28.11
2018-05-29T16:12:43.612Z,28.54
2018-05-29T16:15:11.225Z,28.78
2018-05-29T16:17:39.208Z,28.90
2018-05-29T16:20:06.803Z,29.23
2018-05-29T16:22:34.379Z,29.61
2018-05-29T16:25:01.991Z,29.63
2018-05-29T16:27:29.583Z,29.89
2018-05-29T16:29:57.463Z,30.28
2018-05-29T16:32:25.038Z,30.67
2018-05-29T16:34:52.642Z,30.82
2018-05-29T16:37:20.191Z,31.24
2018-05-29T16:39:47.767Z,31.24
2018-05-29T16:42:15.394Z,31.29
2018-05-29T16:44:42.974Z,31.65
2018-05-29T16:47:10.647Z,34.68
2018-05-29T16:49:38.492Z,37.31
2018-05-29T16:52:06.087Z,38.98
2018-05-29T16:54:34.000Z,39.61
2018-05-29T16:57:01.617Z,39.82
2018-05-29T16:59:29.266Z,40.74
2018-05-29T17:01:56.871Z,41.30
2018-05-29T17:04:24.484Z,41.67
2018-05-29T17:06:52.139Z,42.31
2018-05-29T17:09:19.756Z,42.70
2018-05-29T17:11:47.413Z,43.08
2018-05-29T17:14:15.135Z,43.70
2018-05-29T17:16:42.754Z,43.90
2018-05-29T17:19:10.428Z,44.10
2018-05-29T17:21:38.392Z,44.40
2018-05-29T17:24:05.989Z,44.64
2018-05-29T17:26:33.955Z,45.02
2018-05-29T17:29:01.587Z,45.03
2018-05-29T17:31:29.390Z,45.28
2018-05-29T17:33:56.983Z,45.38
2018-05-29T17:36:24.827Z,45.54
2018-05-29T17:38:52.777Z,45.72
2018-05-29T17:41:20.374Z,45.81
2018-05-29T17:43:48.066Z,46.05
2018-05-29T17:46:15.711Z,46.22
2018-05-29T17:48:43.950Z,46.54
2018-05-29T17:51:11.794Z,46.96
2018-05-29T17:53:39.440Z,47.52
2018-05-29T17:56:07.462Z,47.62
2018-05-29T17:58:35.337Z,48.17
2018-05-29T18:01:02.947Z,48.97
2018-05-29T18:03:30.946Z,49.08
2018-05-29T18:05:58.553Z,49.58
2018-05-29T18:08:26.187Z,50.38
2018-05-29T18:10:53.949Z,52.06
2018-05-29T18:13:21.624Z,54.14
2018-05-29T18:15:49.589Z,55.70
2018-05-29T18:18:17.507Z,58.19
2018-05-29T18:20:45.167Z,60.25
2018-05-29T18:23:12.846Z,63.01
2018-05-29T18:25:40.422Z,64.46
2018-05-29T18:28:07.980Z,66.68
2018-05-29T18:30:35.597Z,68.85
2018-05-29T18:33:03.206Z,71.90
2018-05-29T18:35:31.215Z,72.56
2018-05-29T18:37:58.784Z,72.67
2018-05-29T18:40:26.357Z,73.55
2018-05-29T18:42:54.248Z,73.57
2018-05-29T18:45:22.810Z,73.63
2018-05-29T18:47:50.371Z,74.11
2018-05-29T18:50:18.208Z,74.10
2018-05-29T18:52:45.868Z,74.89
2018-05-29T18:55:13.439Z,74.62
2018-05-29T18:57:41.144Z,75.17
2018-05-29T19:00:08.744Z,75.23
2018-05-29T19:02:36.774Z,74.48
2018-05-29T19:05:04.333Z,75.64
2018-05-29T19:07:31.903Z,75.74
2018-05-29T19:09:59.677Z,76.74
2018-05-29T19:12:27.327Z,78.01
2018-05-29T19:14:54.972Z,77.49
2018-05-29T19:17:22.572Z,78.49
2018-05-29T19:19:50.219Z,78.67
2018-05-29T19:22:17.844Z,78.66
2018-05-29T19:24:45.418Z,78.84
2018-05-29T19:27:13.154Z,78.27
2018-05-29T19:29:40.717Z,78.24
2018-05-29T19:32:08.609Z,77.51
2018-05-29T19:34:36.877Z,77.43
2018-05-29T19:37:04.477Z,77.13
2018-05-29T19:39:32.343Z,77.12
2018-05-29T19:42:00.192Z,76.97
2018-05-29T19:44:28.153Z,76.86
2018-05-29T19:46:55.885Z,76.86
2018-05-29T19:49:23.748Z,77.11
2018-05-29T19:51:51.566Z,77.24
2018-05-29T19:54:19.259Z,77.36
2018-05-29T19:56:46.838Z,77.31
2018-05-29T19:59:14.836Z,77.16
2018-05-29T20:01:42.585Z,77.14
2018-05-29T20:04:10.176Z,77.22
2018-05-29T20:06:37.857Z,77.07
2018-05-29T20:09:06.382Z,77.30
2018-05-29T20:11:34.465Z,77.37
2018-05-29T20:14:02.067Z,77.19
2018-05-29T20:16:29.791Z,77.22
2018-05-29T20:18:57.870Z,77.29
2018-05-29T20:21:25.479Z,78.10
2018-05-29T20:23:53.287Z,78.80
2018-05-29T20:26:21.115Z,79.17
2018-05-29T20:28:48.688Z,79.63
2018-05-29T20:31:16.661Z,79.69
2018-05-29T20:33:44.462Z,79.87
2018-05-29T20:36:12.036Z,80.52
2018-05-29T20:38:39.743Z,80.48
2018-05-29T20:41:07.529Z,80.89
2018-05-29T20:43:35.158Z,79.80
2018-05-29T20:46:02.753Z,79.95
2018-05-29T20:48:30.334Z,80.16
2018-05-29T20:50:58.225Z,80.35
2018-05-29T20:53:26.077Z,80.34
2018-05-29T20:55:53.654Z,79.92
2018-05-29T20:58:21.593Z,79.84
2018-05-29T21:00:49.161Z,79.75
2018-05-29T21:03:16.720Z,79.46
2018-05-29T21:05:44.644Z,80.02
2018-05-29T21:08:12.212Z,79.95
2018-05-29T21:10:39.781Z,79.68
2018-05-29T21:13:07.605Z,79.57
2018-05-29T21:15:35.238Z,79.77
2018-05-29T21:18:03.132Z,79.28
2018-05-29T21:20:30.695Z,79.25
2018-05-29T21:22:58.502Z,79.34
2018-05-29T21:25:26.147Z,79.12
2018-05-29T21:27:53.722Z,78.87
2018-05-29T21:30:21.316Z,79.02
2018-05-29T21:32:48.927Z,79.18
2018-05-29T21:35:16.779Z,78.71
2018-05-29T21:37:44.360Z,78.69
2018-05-29T21:40:12.188Z,79.09
2018-05-29T21:42:40.769Z,79.05
2018-05-29T21:45:08.853Z,79.15
2018-05-29T21:47:36.419Z,79.09
2018-05-29T21:50:03.975Z,79.03
2018-05-29T21:52:31.940Z,79.21
2018-05-29T21:54:59.504Z,79.15
2018-05-29T21:57:27.151Z,78.92
2018-05-29T21:59:55.091Z,79.01
2018-05-29T22:02:22.716Z,78.18
2018-05-29T22:04:50.285Z,78.06
2018-05-29T22:07:17.881Z,78.37
2018-05-29T22:09:45.478Z,78.22
2018-05-29T22:12:13.054Z,78.19
2018-05-29T22:14:40.655Z,78.83
2018-05-29T22:17:08.500Z,78.81
2018-05-29T22:19:36.127Z,78.66
2018-05-29T22:22:03.735Z,78.46
2018-05-29T22:24:31.749Z,78.35
2018-05-29T22:26:59.319Z,78.55
2018-05-29T22:29:26.940Z,78.48
2018-05-29T22:31:54.528Z,78.58
2018-05-29T22:34:22.328Z,78.87
2018-05-29T22:36:49.920Z,78.94
2018-05-29T22:39:17.546Z,79.01
2018-05-29T22:41:45.192Z,79.30
2018-05-29T22:44:12.887Z,79.50
2018-05-29T22:46:40.457Z,79.91
2018-05-29T22:49:08.261Z,80.08
2018-05-29T22:51:36.084Z,80.26
2018-05-29T22:54:03.674Z,80.29
2018-05-29T22:56:31.267Z,80.45
2018-05-29T22:58:58.895Z,80.52
2018-05-29T23:01:26.724Z,80.51
2018-05-29T23:03:54.348Z,80.75
2018-05-29T23:06:22.049Z,80.76
2018-05-29T23:08:49.636Z,80.60
2018-05-29T23:11:17.278Z,80.56
2018-05-29T23:13:44.872Z,80.44
2018-05-29T23:16:12.513Z,80.46
2018-05-29T23:18:40.593Z,80.37
2018-05-29T23:21:08.401Z,80.29
2018-05-29T23:23:35.981Z,80.14
2018-05-29T23:26:04.024Z,79.76
2018-05-29T23:28:31.599Z,79.63
2018-05-29T23:30:59.168Z,79.67
2018-05-29T23:33:26.760Z,79.83
2018-05-29T23:35:54.333Z,80.29
2018-05-29T23:38:22.165Z,80.37
2018-05-29T23:40:49.799Z,80.93
2018-05-29T23:43:17.640Z,81.25
2018-05-29T23:45:45.251Z,81.66
2018-05-29T23:48:13.068Z,81.86
2018-05-29T23:50:40.726Z,81.84
2018-05-29T23:53:08.431Z,82.14
2018-05-29T23:55:36.243Z,82.33
2018-05-29T23:58:03.845Z,82.46
